Terminal Aerodrome Forecast
Issued by NWS Grand Forks, ND

Home | Current Version | Previous Version | Text Only | Print | Product List | Glossary Off
Versions: 1 2 3 4 5 6 7 8 9 10 11 12 13 14 15 16 17 18 19 20 21

000
FTUS43 KFGF 312320
TAFGFK
TAF
KGFK 312320Z 0100/0124 15010KT P6SM SCT080
     FM011500 15017KT P6SM BKN080=

USA.gov is the U.S. government's official web portal to all federal, state and local government web resources and services.